sensor_id;sensor_type;location;lat;lon;timestamp;P1;durP1;ratioP1;P2;durP2;ratioP2
16593;SDS011;8410;52.532;13.336;2023-03-01T00:01:08;25.50;;;14.30;;
16593;SDS011;8410;52.532;13.336;2023-03-01T00:03:37;23.67;;;13.80;;
16593;SDS011;8410;52.532;13.336;2023-03-01T00:06:05;26.73;;;16.53;;
16593;SDS011;8410;52.532;13.336;2023-03-01T00:08:34;22.53;;;15.00;;
16593;SDS011;8410;52.532;13.336;2023-03-01T00:11:03;34.23;;;18.93;;
16593;SDS011;8410;52.532;13.336;2023-03-01T00:13:33;58.07;;;23.67;;
16593;SDS011;8410;52.532;13.336;2023-03-01T00:16:01;66.87;;;24.50;;
16593;SDS011;8410;52.532;13.336;2023-03-01T00:18:29;46.13;;;21.60;;
16593;SDS011;8410;52.532;13.336;2023-03-01T00:20:57;57.93;;;24.13;;
16593;SDS011;8410;52.532;13.336;2023-03-01T00:23:26;44.10;;;22.07;;
16593;SDS011;8410;52.532;13.336;2023-03-01T00:25:53;38.03;;;20.60;;
16593;SDS011;8410;52.532;13.336;2023-03-01T00:28:21;38.50;;;21.20;;
16593;SDS011;8410;52.532;13.336;2023-03-01T00:30:49;44.90;;;22.00;;
16593;SDS011;8410;52.532;13.336;2023-03-01T00:33:16;31.97;;;18.87;;
16593;SDS011;8410;52.532;13.336;2023-03-01T00:35:44;27.40;;;18.23;;
16593;SDS011;8410;52.532;13.336;2023-03-01T00:38:12;27.10;;;17.37;;
16593;SDS011;8410;52.532;13.336;2023-03-01T00:40:40;30.77;;;19.53;;
16593;SDS011;8410;52.532;13.336;2023-03-01T00:43:08;36.13;;;20.13;;
16593;SDS011;8410;52.532;13.336;2023-03-01T00:45:36;31.13;;;18.13;;
16593;SDS011;8410;52.532;13.336;2023-03-01T00:48:03;27.67;;;18.47;;
16593;SDS011;8410;52.532;13.336;2023-03-01T00:50:32;31.93;;;18.87;;
16593;SDS011;8410;52.532;13.336;2023-03-01T00:52:59;27.63;;;20.07;;
16593;SDS011;8410;52.532;13.336;2023-03-01T00:55:27;29.73;;;18.77;;
16593;SDS011;8410;52.532;13.336;2023-03-01T00:57:55;32.27;;;19.97;;
16593;SDS011;8410;52.532;13.336;2023-03-01T01:00:23;29.33;;;19.80;;
16593;SDS011;8410;52.532;13.336;2023-03-01T01:02:53;30.37;;;19.03;;
16593;SDS011;8410;52.532;13.336;2023-03-01T01:05:21;29.37;;;18.33;;
16593;SDS011;8410;52.532;13.336;2023-03-01T01:07:48;25.70;;;18.10;;
16593;SDS011;8410;52.532;13.336;2023-03-01T01:10:16;25.80;;;18.27;;
16593;SDS011;8410;52.532;13.336;2023-03-01T01:12:44;26.47;;;18.03;;
16593;SDS011;8410;52.532;13.336;2023-03-01T01:15:13;29.33;;;18.07;;
16593;SDS011;8410;52.532;13.336;2023-03-01T01:17:42;27.13;;;19.20;;
16593;SDS011;8410;52.532;13.336;2023-03-01T01:20:10;35.57;;;21.67;;
16593;SDS011;8410;52.532;13.336;2023-03-01T01:22:38;36.57;;;19.67;;
16593;SDS011;8410;52.532;13.336;2023-03-01T01:25:06;38.17;;;19.60;;
16593;SDS011;8410;52.532;13.336;2023-03-01T01:27:34;29.27;;;18.83;;
16593;SDS011;8410;52.532;13.336;2023-03-01T01:30:02;29.43;;;19.50;;
16593;SDS011;8410;52.532;13.336;2023-03-01T01:32:31;28.10;;;20.03;;
16593;SDS011;8410;52.532;13.336;2023-03-01T01:34:59;26.27;;;18.20;;
16593;SDS011;8410;52.532;13.336;2023-03-01T01:37:26;29.10;;;18.93;;
16593;SDS011;8410;52.532;13.336;2023-03-01T01:39:59;26.53;;;17.47;;
16593;SDS011;8410;52.532;13.336;2023-03-01T01:42:30;26.60;;;18.43;;
16593;SDS011;8410;52.532;13.336;2023-03-01T01:48:04;28.47;;;17.17;;
16593;SDS011;8410;52.532;13.336;2023-03-01T01:50:39;26.67;;;16.77;;
16593;SDS011;8410;52.532;13.336;2023-03-01T01:53:11;26.17;;;16.73;;
16593;SDS011;8410;52.532;13.336;2023-03-01T01:55:42;24.03;;;17.30;;
16593;SDS011;8410;52.532;13.336;2023-03-01T01:58:12;20.83;;;16.33;;
16593;SDS011;8410;52.532;13.336;2023-03-01T02:00:42;21.27;;;16.07;;
16593;SDS011;8410;52.532;13.336;2023-03-01T02:03:12;24.50;;;16.80;;
16593;SDS011;8410;52.532;13.336;2023-03-01T02:05:45;28.90;;;16.63;;
16593;SDS011;8410;52.532;13.336;2023-03-01T02:08:21;24.10;;;16.00;;
16593;SDS011;8410;52.532;13.336;2023-03-01T02:10:52;25.27;;;17.57;;
16593;SDS011;8410;52.532;13.336;2023-03-01T02:13:22;21.60;;;16.00;;
16593;SDS011;8410;52.532;13.336;2023-03-01T02:15:50;25.40;;;16.63;;
16593;SDS011;8410;52.532;13.336;2023-03-01T02:18:20;20.83;;;15.93;;
16593;SDS011;8410;52.532;13.336;2023-03-01T02:20:51;24.50;;;15.43;;
16593;SDS011;8410;52.532;13.336;2023-03-01T02:23:30;25.10;;;16.60;;
16593;SDS011;8410;52.532;13.336;2023-03-01T02:26:00;27.63;;;16.47;;
16593;SDS011;8410;52.532;13.336;2023-03-01T02:28:35;26.17;;;17.47;;
16593;SDS011;8410;52.532;13.336;2023-03-01T02:31:04;22.77;;;16.87;;
16593;SDS011;8410;52.532;13.336;2023-03-01T02:33:51;25.57;;;18.07;;
16593;SDS011;8410;52.532;13.336;2023-03-01T02:36:21;25.47;;;16.27;;
16593;SDS011;8410;52.532;13.336;2023-03-01T02:38:52;25.30;;;16.57;;
16593;SDS011;8410;52.532;13.336;2023-03-01T02:41:23;25.73;;;17.90;;
16593;SDS011;8410;52.532;13.336;2023-03-01T02:43:55;24.13;;;16.53;;
16593;SDS011;8410;52.532;13.336;2023-03-01T02:46:23;27.17;;;16.97;;
16593;SDS011;8410;52.532;13.336;2023-03-01T02:48:53;24.53;;;17.77;;
16593;SDS011;8410;52.532;13.336;2023-03-01T02:51:25;28.70;;;18.10;;
16593;SDS011;8410;52.532;13.336;2023-03-01T02:54:05;25.53;;;17.40;;
16593;SDS011;8410;52.532;13.336;2023-03-01T02:56:39;25.67;;;16.77;;
16593;SDS011;8410;52.532;13.336;2023-03-01T02:59:09;23.40;;;17.20;;
16593;SDS011;8410;52.532;13.336;2023-03-01T03:01:37;25.30;;;17.17;;
16593;SDS011;8410;52.532;13.336;2023-03-01T03:04:05;27.53;;;18.03;;
16593;SDS011;8410;52.532;13.336;2023-03-01T03:06:34;24.10;;;17.37;;
16593;SDS011;8410;52.532;13.336;2023-03-01T03:09:02;23.77;;;17.20;;
16593;SDS011;8410;52.532;13.336;2023-03-01T03:11:30;25.90;;;16.90;;
16593;SDS011;8410;52.532;13.336;2023-03-01T03:13:58;26.37;;;17.70;;
16593;SDS011;8410;52.532;13.336;2023-03-01T03:16:27;24.97;;;17.73;;
16593;SDS011;8410;52.532;13.336;2023-03-01T03:18:56;26.00;;;16.43;;
16593;SDS011;8410;52.532;13.336;2023-03-01T03:21:31;28.20;;;18.57;;
16593;SDS011;8410;52.532;13.336;2023-03-01T03:23:58;21.57;;;17.40;;
16593;SDS011;8410;52.532;13.336;2023-03-01T03:26:26;26.07;;;17.40;;
16593;SDS011;8410;52.532;13.336;2023-03-01T03:28:54;25.33;;;16.47;;
16593;SDS011;8410;52.532;13.336;2023-03-01T03:31:22;33.70;;;20.80;;
16593;SDS011;8410;52.532;13.336;2023-03-01T03:33:51;39.23;;;29.47;;
16593;SDS011;8410;52.532;13.336;2023-03-01T03:36:19;25.40;;;17.50;;
16593;SDS011;8410;52.532;13.336;2023-03-01T03:38:48;23.43;;;17.07;;
16593;SDS011;8410;52.532;13.336;2023-03-01T03:41:16;25.07;;;19.27;;
16593;SDS011;8410;52.532;13.336;2023-03-01T03:43:44;25.33;;;16.80;;
16593;SDS011;8410;52.532;13.336;2023-03-01T03:46:12;22.87;;;16.00;;
16593;SDS011;8410;52.532;13.336;2023-03-01T03:48:40;22.97;;;16.97;;
16593;SDS011;8410;52.532;13.336;2023-03-01T03:51:11;19.37;;;16.20;;
16593;SDS011;8410;52.532;13.336;2023-03-01T03:53:40;22.27;;;16.63;;
16593;SDS011;8410;52.532;13.336;2023-03-01T03:56:08;24.33;;;16.73;;
16593;SDS011;8410;52.532;13.336;2023-03-01T03:58:36;25.77;;;17.20;;
16593;SDS011;8410;52.532;13.336;2023-03-01T04:01:04;28.93;;;17.50;;
16593;SDS011;8410;52.532;13.336;2023-03-01T04:03:32;24.40;;;18.43;;
16593;SDS011;8410;52.532;13.336;2023-03-01T04:06:01;22.20;;;15.13;;
16593;SDS011;8410;52.532;13.336;2023-03-01T04:08:31;22.70;;;16.73;;
16593;SDS011;8410;52.532;13.336;2023-03-01T04:10:59;26.30;;;17.13;;
16593;SDS011;8410;52.532;13.336;2023-03-01T04:13:49;21.83;;;16.77;;
16593;SDS011;8410;52.532;13.336;2023-03-01T04:16:17;21.23;;;16.07;;
16593;SDS011;8410;52.532;13.336;2023-03-01T04:18:45;19.00;;;14.87;;
16593;SDS011;8410;52.532;13.336;2023-03-01T04:21:13;22.90;;;15.10;;
16593;SDS011;8410;52.532;13.336;2023-03-01T04:23:42;29.00;;;16.37;;
16593;SDS011;8410;52.532;13.336;2023-03-01T04:26:10;22.13;;;17.77;;
16593;SDS011;8410;52.532;13.336;2023-03-01T04:28:38;23.40;;;16.33;;
16593;SDS011;8410;52.532;13.336;2023-03-01T04:31:11;22.37;;;15.60;;
16593;SDS011;8410;52.532;13.336;2023-03-01T04:33:43;27.10;;;18.23;;
16593;SDS011;8410;52.532;13.336;2023-03-01T04:36:13;29.97;;;16.40;;
16593;SDS011;8410;52.532;13.336;2023-03-01T04:38:45;22.97;;;17.33;;
16593;SDS011;8410;52.532;13.336;2023-03-01T04:41:14;22.83;;;16.53;;
16593;SDS011;8410;52.532;13.336;2023-03-01T04:43:43;21.17;;;16.17;;
16593;SDS011;8410;52.532;13.336;2023-03-01T04:46:12;21.50;;;16.00;;
16593;SDS011;8410;52.532;13.336;2023-03-01T04:48:42;22.50;;;16.10;;
16593;SDS011;8410;52.532;13.336;2023-03-01T04:51:11;23.73;;;16.40;;
16593;SDS011;8410;52.532;13.336;2023-03-01T04:53:40;26.80;;;19.07;;
16593;SDS011;8410;52.532;13.336;2023-03-01T04:56:09;23.53;;;17.50;;
16593;SDS011;8410;52.532;13.336;2023-03-01T04:58:37;22.50;;;17.37;;
16593;SDS011;8410;52.532;13.336;2023-03-01T05:01:08;23.83;;;16.97;;
16593;SDS011;8410;52.532;13.336;2023-03-01T05:03:41;23.80;;;17.30;;
16593;SDS011;8410;52.532;13.336;2023-03-01T05:06:10;27.23;;;17.67;;
16593;SDS011;8410;52.532;13.336;2023-03-01T05:08:37;42.53;;;17.40;;
16593;SDS011;8410;52.532;13.336;2023-03-01T05:11:06;32.17;;;18.47;;
16593;SDS011;8410;52.532;13.336;2023-03-01T05:13:36;34.80;;;16.80;;
16593;SDS011;8410;52.532;13.336;2023-03-01T05:16:05;29.43;;;17.90;;
16593;SDS011;8410;52.532;13.336;2023-03-01T05:18:38;24.67;;;16.43;;
16593;SDS011;8410;52.532;13.336;2023-03-01T05:21:07;27.73;;;16.53;;
16593;SDS011;8410;52.532;13.336;2023-03-01T05:23:36;26.10;;;16.90;;
16593;SDS011;8410;52.532;13.336;2023-03-01T05:26:04;23.17;;;16.73;;
16593;SDS011;8410;52.532;13.336;2023-03-01T05:28:52;26.33;;;17.27;;
16593;SDS011;8410;52.532;13.336;2023-03-01T05:31:22;21.50;;;15.27;;
16593;SDS011;8410;52.532;13.336;2023-03-01T05:33:50;25.13;;;17.33;;
16593;SDS011;8410;52.532;13.336;2023-03-01T05:36:18;26.77;;;18.00;;
16593;SDS011;8410;52.532;13.336;2023-03-01T05:38:46;27.90;;;16.50;;
16593;SDS011;8410;52.532;13.336;2023-03-01T05:41:14;25.70;;;17.27;;
16593;SDS011;8410;52.532;13.336;2023-03-01T05:43:43;24.33;;;17.80;;
16593;SDS011;8410;52.532;13.336;2023-03-01T05:46:12;26.37;;;16.27;;
16593;SDS011;8410;52.532;13.336;2023-03-01T05:48:41;26.60;;;18.07;;
16593;SDS011;8410;52.532;13.336;2023-03-01T05:51:09;24.77;;;17.27;;
16593;SDS011;8410;52.532;13.336;2023-03-01T05:53:38;25.70;;;17.37;;
16593;SDS011;8410;52.532;13.336;2023-03-01T05:56:05;24.47;;;16.63;;
16593;SDS011;8410;52.532;13.336;2023-03-01T05:58:33;24.43;;;17.47;;
16593;SDS011;8410;52.532;13.336;2023-03-01T06:01:00;25.03;;;17.37;;
16593;SDS011;8410;52.532;13.336;2023-03-01T06:03:29;25.13;;;17.67;;
16593;SDS011;8410;52.532;13.336;2023-03-01T06:05:56;25.93;;;17.03;;
16593;SDS011;8410;52.532;13.336;2023-03-01T06:08:24;23.97;;;15.37;;
16593;SDS011;8410;52.532;13.336;2023-03-01T06:10:53;23.77;;;15.50;;
16593;SDS011;8410;52.532;13.336;2023-03-01T06:13:21;21.30;;;15.10;;
16593;SDS011;8410;52.532;13.336;2023-03-01T06:15:49;23.03;;;16.53;;
16593;SDS011;8410;52.532;13.336;2023-03-01T06:18:17;20.43;;;15.40;;
16593;SDS011;8410;52.532;13.336;2023-03-01T06:20:52;25.10;;;14.83;;
16593;SDS011;8410;52.532;13.336;2023-03-01T06:23:19;20.37;;;15.47;;
16593;SDS011;8410;52.532;13.336;2023-03-01T06:25:47;25.33;;;15.57;;
16593;SDS011;8410;52.532;13.336;2023-03-01T06:28:15;24.57;;;14.70;;
16593;SDS011;8410;52.532;13.336;2023-03-01T06:30:42;22.67;;;14.67;;
16593;SDS011;8410;52.532;13.336;2023-03-01T06:33:10;20.60;;;15.53;;
16593;SDS011;8410;52.532;13.336;2023-03-01T06:35:37;24.53;;;16.20;;
16593;SDS011;8410;52.532;13.336;2023-03-01T06:38:06;21.27;;;15.00;;
16593;SDS011;8410;52.532;13.336;2023-03-01T06:40:33;22.87;;;16.43;;
16593;SDS011;8410;52.532;13.336;2023-03-01T06:43:02;24.10;;;16.43;;
16593;SDS011;8410;52.532;13.336;2023-03-01T06:45:29;22.47;;;16.70;;
16593;SDS011;8410;52.532;13.336;2023-03-01T06:48:03;23.03;;;16.80;;
16593;SDS011;8410;52.532;13.336;2023-03-01T06:50:31;23.20;;;15.93;;
16593;SDS011;8410;52.532;13.336;2023-03-01T06:53:00;23.40;;;15.87;;
16593;SDS011;8410;52.532;13.336;2023-03-01T06:55:29;20.90;;;15.07;;
16593;SDS011;8410;52.532;13.336;2023-03-01T06:57:57;23.00;;;15.90;;
16593;SDS011;8410;52.532;13.336;2023-03-01T07:00:26;18.60;;;14.57;;
16593;SDS011;8410;52.532;13.336;2023-03-01T07:02:54;21.23;;;15.40;;
16593;SDS011;8410;52.532;13.336;2023-03-01T07:05:25;21.23;;;15.53;;
16593;SDS011;8410;52.532;13.336;2023-03-01T07:07:53;23.20;;;16.40;;
16593;SDS011;8410;52.532;13.336;2023-03-01T07:10:21;28.30;;;15.90;;
16593;SDS011;8410;52.532;13.336;2023-03-01T07:12:50;25.77;;;16.03;;
16593;SDS011;8410;52.532;13.336;2023-03-01T07:15:17;26.73;;;15.27;;
16593;SDS011;8410;52.532;13.336;2023-03-01T07:17:45;23.20;;;15.77;;
16593;SDS011;8410;52.532;13.336;2023-03-01T07:20:14;23.50;;;16.30;;
16593;SDS011;8410;52.532;13.336;2023-03-01T07:22:41;21.40;;;16.13;;
16593;SDS011;8410;52.532;13.336;2023-03-01T07:25:09;21.07;;;15.90;;
16593;SDS011;8410;52.532;13.336;2023-03-01T07:27:37;23.83;;;16.23;;
16593;SDS011;8410;52.532;13.336;2023-03-01T07:30:07;36.87;;;16.60;;
16593;SDS011;8410;52.532;13.336;2023-03-01T07:32:35;24.30;;;16.03;;
16593;SDS011;8410;52.532;13.336;2023-03-01T07:35:03;27.70;;;15.87;;
16593;SDS011;8410;52.532;13.336;2023-03-01T07:37:31;25.10;;;16.43;;
16593;SDS011;8410;52.532;13.336;2023-03-01T07:39:59;28.07;;;18.10;;
16593;SDS011;8410;52.532;13.336;2023-03-01T07:42:26;42.27;;;17.50;;
16593;SDS011;8410;52.532;13.336;2023-03-01T07:44:54;33.07;;;17.07;;
16593;SDS011;8410;52.532;13.336;2023-03-01T07:47:23;24.57;;;17.07;;
16593;SDS011;8410;52.532;13.336;2023-03-01T07:49:50;32.20;;;17.53;;
16593;SDS011;8410;52.532;13.336;2023-03-01T07:52:18;25.60;;;17.13;;
16593;SDS011;8410;52.532;13.336;2023-03-01T07:54:45;24.20;;;16.77;;
16593;SDS011;8410;52.532;13.336;2023-03-01T07:57:13;24.13;;;15.77;;
16593;SDS011;8410;52.532;13.336;2023-03-01T07:59:41;30.47;;;16.97;;
16593;SDS011;8410;52.532;13.336;2023-03-01T08:02:08;23.57;;;16.90;;
16593;SDS011;8410;52.532;13.336;2023-03-01T08:04:38;37.87;;;18.07;;
16593;SDS011;8410;52.532;13.336;2023-03-01T08:07:06;53.90;;;20.53;;
16593;SDS011;8410;52.532;13.336;2023-03-01T08:09:34;45.80;;;18.70;;
16593;SDS011;8410;52.532;13.336;2023-03-01T08:12:02;31.97;;;17.33;;
16593;SDS011;8410;52.532;13.336;2023-03-01T08:14:30;31.43;;;16.53;;
16593;SDS011;8410;52.532;13.336;2023-03-01T08:16:58;23.33;;;17.03;;
16593;SDS011;8410;52.532;13.336;2023-03-01T08:19:26;26.83;;;17.57;;
16593;SDS011;8410;52.532;13.336;2023-03-01T08:21:55;28.00;;;17.40;;
16593;SDS011;8410;52.532;13.336;2023-03-01T08:24:24;33.13;;;16.37;;
16593;SDS011;8410;52.532;13.336;2023-03-01T08:26:52;34.40;;;17.43;;
16593;SDS011;8410;52.532;13.336;2023-03-01T08:29:20;50.07;;;17.33;;
16593;SDS011;8410;52.532;13.336;2023-03-01T08:31:48;66.70;;;17.87;;
16593;SDS011;8410;52.532;13.336;2023-03-01T08:34:16;47.57;;;18.40;;
16593;SDS011;8410;52.532;13.336;2023-03-01T08:36:45;27.10;;;13.57;;
16593;SDS011;8410;52.532;13.336;2023-03-01T08:39:15;48.17;;;14.30;;
16593;SDS011;8410;52.532;13.336;2023-03-01T08:41:46;65.20;;;13.60;;
16593;SDS011;8410;52.532;13.336;2023-03-01T08:44:14;48.83;;;13.00;;
16593;SDS011;8410;52.532;13.336;2023-03-01T08:46:44;26.63;;;11.37;;
16593;SDS011;8410;52.532;13.336;2023-03-01T08:49:12;20.50;;;9.87;;
16593;SDS011;8410;52.532;13.336;2023-03-01T08:51:41;11.23;;;8.70;;
16593;SDS011;8410;52.532;13.336;2023-03-01T08:54:09;15.53;;;8.93;;
16593;SDS011;8410;52.532;13.336;2023-03-01T08:56:40;12.70;;;9.33;;
16593;SDS011;8410;52.532;13.336;2023-03-01T08:59:09;16.83;;;9.60;;
16593;SDS011;8410;52.532;13.336;2023-03-01T09:01:36;16.43;;;9.77;;
16593;SDS011;8410;52.532;13.336;2023-03-01T09:04:04;11.40;;;8.13;;
16593;SDS011;8410;52.532;13.336;2023-03-01T09:06:32;14.27;;;7.60;;
16593;SDS011;8410;52.532;13.336;2023-03-01T09:09:01;10.87;;;8.33;;
16593;SDS011;8410;52.532;13.336;2023-03-01T09:11:30;17.43;;;8.67;;
16593;SDS011;8410;52.532;13.336;2023-03-01T09:13:59;13.37;;;8.40;;
16593;SDS011;8410;52.532;13.336;2023-03-01T09:16:26;9.90;;;7.23;;
16593;SDS011;8410;52.532;13.336;2023-03-01T09:18:56;12.83;;;6.50;;
16593;SDS011;8410;52.532;13.336;2023-03-01T09:21:23;10.40;;;7.07;;
16593;SDS011;8410;52.532;13.336;2023-03-01T09:24:06;10.27;;;6.97;;
16593;SDS011;8410;52.532;13.336;2023-03-01T09:26:38;8.07;;;6.13;;
16593;SDS011;8410;52.532;13.336;2023-03-01T09:29:07;8.67;;;5.77;;
16593;SDS011;8410;52.532;13.336;2023-03-01T09:31:36;7.57;;;5.87;;
16593;SDS011;8410;52.532;13.336;2023-03-01T09:34:04;7.30;;;5.67;;
16593;SDS011;8410;52.532;13.336;2023-03-01T09:36:32;7.87;;;5.70;;
16593;SDS011;8410;52.532;13.336;2023-03-01T09:39:01;8.30;;;6.17;;
16593;SDS011;8410;52.532;13.336;2023-03-01T09:41:42;8.90;;;6.20;;
16593;SDS011;8410;52.532;13.336;2023-03-01T09:44:18;8.30;;;6.50;;
16593;SDS011;8410;52.532;13.336;2023-03-01T09:46:55;9.70;;;7.07;;
16593;SDS011;8410;52.532;13.336;2023-03-01T09:49:24;14.70;;;8.47;;
16593;SDS011;8410;52.532;13.336;2023-03-01T09:51:55;9.63;;;7.00;;
16593;SDS011;8410;52.532;13.336;2023-03-01T09:54:26;10.37;;;6.33;;
16593;SDS011;8410;52.532;13.336;2023-03-01T09:56:58;9.20;;;7.10;;
16593;SDS011;8410;52.532;13.336;2023-03-01T09:59:39;10.90;;;6.93;;
16593;SDS011;8410;52.532;13.336;2023-03-01T10:02:21;8.57;;;6.83;;
16593;SDS011;8410;52.532;13.336;2023-03-01T10:04:54;10.20;;;6.27;;
16593;SDS011;8410;52.532;13.336;2023-03-01T10:07:27;8.17;;;6.50;;
16593;SDS011;8410;52.532;13.336;2023-03-01T10:10:04;13.63;;;6.70;;
16593;SDS011;8410;52.532;13.336;2023-03-01T10:12:34;8.10;;;6.73;;
16593;SDS011;8410;52.532;13.336;2023-03-01T10:15:07;9.10;;;6.43;;
16593;SDS011;8410;52.532;13.336;2023-03-01T10:17:39;9.43;;;6.63;;
16593;SDS011;8410;52.532;13.336;2023-03-01T10:20:17;8.27;;;6.57;;
16593;SDS011;8410;52.532;13.336;2023-03-01T10:22:47;8.97;;;6.87;;
16593;SDS011;8410;52.532;13.336;2023-03-01T10:25:22;12.03;;;6.90;;
16593;SDS011;8410;52.532;13.336;2023-03-01T10:27:59;15.00;;;7.17;;
16593;SDS011;8410;52.532;13.336;2023-03-01T10:30:34;12.47;;;7.17;;
16593;SDS011;8410;52.532;13.336;2023-03-01T10:33:05;8.67;;;5.67;;
16593;SDS011;8410;52.532;13.336;2023-03-01T10:35:43;9.53;;;5.37;;
16593;SDS011;8410;52.532;13.336;2023-03-01T10:38:11;6.90;;;4.83;;
16593;SDS011;8410;52.532;13.336;2023-03-01T10:40:50;6.20;;;4.00;;
16593;SDS011;8410;52.532;13.336;2023-03-01T10:43:19;6.97;;;4.10;;
16593;SDS011;8410;52.532;13.336;2023-03-01T10:45:48;6.30;;;3.90;;
16593;SDS011;8410;52.532;13.336;2023-03-01T10:48:17;5.13;;;3.97;;
16593;SDS011;8410;52.532;13.336;2023-03-01T10:50:46;5.70;;;4.30;;
16593;SDS011;8410;52.532;13.336;2023-03-01T10:53:22;6.93;;;4.07;;
16593;SDS011;8410;52.532;13.336;2023-03-01T10:55:56;7.03;;;4.30;;
16593;SDS011;8410;52.532;13.336;2023-03-01T10:58:26;4.47;;;4.07;;
16593;SDS011;8410;52.532;13.336;2023-03-01T11:00:56;7.57;;;4.10;;
16593;SDS011;8410;52.532;13.336;2023-03-01T11:03:26;8.33;;;4.73;;
16593;SDS011;8410;52.532;13.336;2023-03-01T11:05:56;7.53;;;4.90;;
16593;SDS011;8410;52.532;13.336;2023-03-01T11:08:30;7.27;;;4.63;;
16593;SDS011;8410;52.532;13.336;2023-03-01T11:11:04;8.30;;;5.07;;
16593;SDS011;8410;52.532;13.336;2023-03-01T11:13:34;6.87;;;5.03;;
16593;SDS011;8410;52.532;13.336;2023-03-01T11:16:06;6.23;;;3.97;;
16593;SDS011;8410;52.532;13.336;2023-03-01T11:18:37;7.87;;;4.63;;
16593;SDS011;8410;52.532;13.336;2023-03-01T11:21:13;6.97;;;4.37;;
16593;SDS011;8410;52.532;13.336;2023-03-01T11:23:43;9.07;;;4.37;;
16593;SDS011;8410;52.532;13.336;2023-03-01T11:26:13;7.13;;;4.20;;
16593;SDS011;8410;52.532;13.336;2023-03-01T11:28:44;6.50;;;3.87;;
16593;SDS011;8410;52.532;13.336;2023-03-01T11:31:19;5.67;;;3.57;;
16593;SDS011;8410;52.532;13.336;2023-03-01T11:33:50;5.87;;;3.80;;
16593;SDS011;8410;52.532;13.336;2023-03-01T11:36:24;5.30;;;4.17;;
16593;SDS011;8410;52.532;13.336;2023-03-01T11:39:00;3.80;;;3.40;;
16593;SDS011;8410;52.532;13.336;2023-03-01T11:41:31;6.70;;;3.90;;
16593;SDS011;8410;52.532;13.336;2023-03-01T11:44:03;6.77;;;3.60;;
16593;SDS011;8410;52.532;13.336;2023-03-01T11:46:51;8.23;;;3.77;;
16593;SDS011;8410;52.532;13.336;2023-03-01T11:49:48;5.53;;;3.40;;
16593;SDS011;8410;52.532;13.336;2023-03-01T11:52:23;4.47;;;2.87;;
16593;SDS011;8410;52.532;13.336;2023-03-01T11:55:12;3.37;;;2.60;;
16593;SDS011;8410;52.532;13.336;2023-03-01T11:57:53;3.90;;;2.90;;
16593;SDS011;8410;52.532;13.336;2023-03-01T12:03:40;12.80;;;3.60;;
16593;SDS011;8410;52.532;13.336;2023-03-01T12:06:23;9.90;;;3.60;;
16593;SDS011;8410;52.532;13.336;2023-03-01T12:09:02;6.00;;;4.07;;
16593;SDS011;8410;52.532;13.336;2023-03-01T12:11:44;7.40;;;3.27;;
16593;SDS011;8410;52.532;13.336;2023-03-01T12:14:29;6.27;;;3.57;;
16593;SDS011;8410;52.532;13.336;2023-03-01T12:17:20;4.03;;;3.37;;
16593;SDS011;8410;52.532;13.336;2023-03-01T12:20:14;4.90;;;3.60;;
16593;SDS011;8410;52.532;13.336;2023-03-01T12:22:55;3.60;;;3.10;;
16593;SDS011;8410;52.532;13.336;2023-03-01T12:25:46;4.93;;;3.57;;
16593;SDS011;8410;52.532;13.336;2023-03-01T12:28:27;3.23;;;2.83;;
16593;SDS011;8410;52.532;13.336;2023-03-01T12:31:06;6.97;;;3.40;;
16593;SDS011;8410;52.532;13.336;2023-03-01T12:33:45;5.73;;;3.83;;
16593;SDS011;8410;52.532;13.336;2023-03-01T12:39:13;4.23;;;2.80;;
16593;SDS011;8410;52.532;13.336;2023-03-01T12:42:04;4.60;;;3.37;;
16593;SDS011;8410;52.532;13.336;2023-03-01T12:44:53;3.90;;;3.10;;
16593;SDS011;8410;52.532;13.336;2023-03-01T12:47:37;4.20;;;3.40;;
16593;SDS011;8410;52.532;13.336;2023-03-01T12:50:19;3.90;;;3.00;;
16593;SDS011;8410;52.532;13.336;2023-03-01T12:52:51;4.60;;;3.30;;
16593;SDS011;8410;52.532;13.336;2023-03-01T12:55:25;3.43;;;2.60;;
16593;SDS011;8410;52.532;13.336;2023-03-01T12:57:59;5.23;;;2.90;;
16593;SDS011;8410;52.532;13.336;2023-03-01T13:00:31;4.10;;;3.30;;
16593;SDS011;8410;52.532;13.336;2023-03-01T13:03:09;3.50;;;3.00;;
16593;SDS011;8410;52.532;13.336;2023-03-01T13:05:51;3.30;;;2.37;;
16593;SDS011;8410;52.532;13.336;2023-03-01T13:08:35;3.23;;;2.67;;
16593;SDS011;8410;52.532;13.336;2023-03-01T13:11:12;3.93;;;2.73;;
16593;SDS011;8410;52.532;13.336;2023-03-01T13:13:44;3.27;;;2.53;;
16593;SDS011;8410;52.532;13.336;2023-03-01T13:16:22;3.63;;;2.30;;
16593;SDS011;8410;52.532;13.336;2023-03-01T13:19:10;2.63;;;2.10;;
16593;SDS011;8410;52.532;13.336;2023-03-01T13:21:42;4.27;;;2.67;;
16593;SDS011;8410;52.532;13.336;2023-03-01T13:24:25;3.27;;;2.80;;
16593;SDS011;8410;52.532;13.336;2023-03-01T13:27:11;3.97;;;2.70;;
16593;SDS011;8410;52.532;13.336;2023-03-01T13:29:51;3.70;;;2.70;;
16593;SDS011;8410;52.532;13.336;2023-03-01T13:32:21;3.67;;;2.30;;
16593;SDS011;8410;52.532;13.336;2023-03-01T13:41:08;2.57;;;2.33;;
16593;SDS011;8410;52.532;13.336;2023-03-01T13:43:36;4.17;;;2.50;;
16593;SDS011;8410;52.532;13.336;2023-03-01T13:46:09;3.80;;;2.50;;
16593;SDS011;8410;52.532;13.336;2023-03-01T13:48:42;7.10;;;2.77;;
16593;SDS011;8410;52.532;13.336;2023-03-01T13:51:12;3.10;;;2.63;;
16593;SDS011;8410;52.532;13.336;2023-03-01T13:53:42;7.23;;;3.10;;
16593;SDS011;8410;52.532;13.336;2023-03-01T13:56:14;3.07;;;2.57;;
16593;SDS011;8410;52.532;13.336;2023-03-01T13:58:49;6.17;;;2.63;;
16593;SDS011;8410;52.532;13.336;2023-03-01T14:01:24;3.90;;;2.97;;
16593;SDS011;8410;52.532;13.336;2023-03-01T14:03:53;5.47;;;2.47;;
16593;SDS011;8410;52.532;13.336;2023-03-01T14:06:22;5.00;;;2.60;;
16593;SDS011;8410;52.532;13.336;2023-03-01T14:09:01;5.43;;;2.80;;
16593;SDS011;8410;52.532;13.336;2023-03-01T14:11:41;6.83;;;3.07;;
16593;SDS011;8410;52.532;13.336;2023-03-01T14:14:34;3.93;;;2.60;;
16593;SDS011;8410;52.532;13.336;2023-03-01T14:17:14;2.73;;;2.27;;
16593;SDS011;8410;52.532;13.336;2023-03-01T14:19:54;3.97;;;2.20;;
16593;SDS011;8410;52.532;13.336;2023-03-01T14:22:25;4.50;;;2.33;;
16593;SDS011;8410;52.532;13.336;2023-03-01T14:24:55;2.93;;;2.20;;
16593;SDS011;8410;52.532;13.336;2023-03-01T14:27:27;2.77;;;2.20;;
16593;SDS011;8410;52.532;13.336;2023-03-01T14:29:58;2.47;;;2.10;;
16593;SDS011;8410;52.532;13.336;2023-03-01T14:32:27;3.63;;;2.47;;
16593;SDS011;8410;52.532;13.336;2023-03-01T14:34:56;3.87;;;1.90;;
16593;SDS011;8410;52.532;13.336;2023-03-01T14:37:25;4.63;;;2.00;;
16593;SDS011;8410;52.532;13.336;2023-03-01T14:39:54;3.57;;;1.73;;
16593;SDS011;8410;52.532;13.336;2023-03-01T14:42:24;2.17;;;1.67;;
16593;SDS011;8410;52.532;13.336;2023-03-01T14:44:56;2.77;;;1.63;;
16593;SDS011;8410;52.532;13.336;2023-03-01T14:47:26;2.50;;;1.77;;
16593;SDS011;8410;52.532;13.336;2023-03-01T14:49:58;3.20;;;2.30;;
16593;SDS011;8410;52.532;13.336;2023-03-01T14:52:31;2.60;;;1.97;;
16593;SDS011;8410;52.532;13.336;2023-03-01T14:55:02;5.17;;;2.23;;
16593;SDS011;8410;52.532;13.336;2023-03-01T14:57:33;3.90;;;2.40;;
16593;SDS011;8410;52.532;13.336;2023-03-01T15:00:02;4.87;;;2.10;;
16593;SDS011;8410;52.532;13.336;2023-03-01T15:02:33;3.63;;;1.70;;
16593;SDS011;8410;52.532;13.336;2023-03-01T15:05:03;2.93;;;1.60;;
16593;SDS011;8410;52.532;13.336;2023-03-01T15:07:35;3.67;;;2.20;;
16593;SDS011;8410;52.532;13.336;2023-03-01T15:10:06;3.43;;;2.20;;